sensor_id;sensor_type;location;lat;lon;timestamp;P1;durP1;ratioP1;P2;durP2;ratioP2
51724;SDS011;37801;53.224;6.552;2023-05-10T00:00:51;22.40;;;16.98;;
51724;SDS011;37801;53.224;6.552;2023-05-10T00:03:16;21.25;;;16.85;;
51724;SDS011;37801;53.224;6.552;2023-05-10T00:05:42;20.58;;;16.75;;
51724;SDS011;37801;53.224;6.552;2023-05-10T00:08:08;22.42;;;17.67;;
51724;SDS011;37801;53.224;6.552;2023-05-10T00:10:33;22.63;;;16.75;;
51724;SDS011;37801;53.224;6.552;2023-05-10T00:12:59;21.85;;;16.85;;
51724;SDS011;37801;53.224;6.552;2023-05-10T00:15:25;22.48;;;16.15;;
51724;SDS011;37801;53.224;6.552;2023-05-10T00:17:51;23.83;;;16.15;;
51724;SDS011;37801;53.224;6.552;2023-05-10T00:20:16;22.95;;;16.15;;
51724;SDS011;37801;53.224;6.552;2023-05-10T00:22:42;21.98;;;16.42;;
51724;SDS011;37801;53.224;6.552;2023-05-10T00:25:08;23.25;;;16.30;;
51724;SDS011;37801;53.224;6.552;2023-05-10T00:27:34;21.00;;;14.65;;
51724;SDS011;37801;53.224;6.552;2023-05-10T00:30:00;19.98;;;15.05;;
51724;SDS011;37801;53.224;6.552;2023-05-10T00:32:26;19.13;;;14.45;;
51724;SDS011;37801;53.224;6.552;2023-05-10T00:34:51;20.38;;;15.23;;
51724;SDS011;37801;53.224;6.552;2023-05-10T00:37:17;18.13;;;13.95;;
51724;SDS011;37801;53.224;6.552;2023-05-10T00:39:43;16.65;;;13.00;;
51724;SDS011;37801;53.224;6.552;2023-05-10T00:42:08;14.40;;;11.88;;
51724;SDS011;37801;53.224;6.552;2023-05-10T00:44:34;16.23;;;12.40;;
51724;SDS011;37801;53.224;6.552;2023-05-10T00:47:00;17.58;;;12.65;;
51724;SDS011;37801;53.224;6.552;2023-05-10T00:49:26;17.25;;;12.52;;
51724;SDS011;37801;53.224;6.552;2023-05-10T00:51:52;16.33;;;12.73;;
51724;SDS011;37801;53.224;6.552;2023-05-10T00:54:17;15.82;;;11.95;;
51724;SDS011;37801;53.224;6.552;2023-05-10T00:56:43;16.42;;;12.25;;
51724;SDS011;37801;53.224;6.552;2023-05-10T00:59:17;16.65;;;11.23;;
51724;SDS011;37801;53.224;6.552;2023-05-10T01:01:44;16.15;;;11.82;;
51724;SDS011;37801;53.224;6.552;2023-05-10T01:04:12;15.00;;;12.10;;
51724;SDS011;37801;53.224;6.552;2023-05-10T01:06:42;15.80;;;12.13;;
51724;SDS011;37801;53.224;6.552;2023-05-10T01:09:08;13.68;;;11.15;;
51724;SDS011;37801;53.224;6.552;2023-05-10T01:11:35;16.00;;;11.10;;
51724;SDS011;37801;53.224;6.552;2023-05-10T01:14:01;16.27;;;12.95;;
51724;SDS011;37801;53.224;6.552;2023-05-10T01:16:27;17.23;;;13.85;;
51724;SDS011;37801;53.224;6.552;2023-05-10T01:18:57;18.80;;;13.65;;
51724;SDS011;37801;53.224;6.552;2023-05-10T01:21:32;18.25;;;13.30;;
51724;SDS011;37801;53.224;6.552;2023-05-10T01:35:06;18.30;;;13.75;;
51724;SDS011;37801;53.224;6.552;2023-05-10T01:37:59;21.98;;;15.52;;
51724;SDS011;37801;53.224;6.552;2023-05-10T01:40:32;18.30;;;14.15;;
51724;SDS011;37801;53.224;6.552;2023-05-10T01:43:04;19.63;;;14.23;;
51724;SDS011;37801;53.224;6.552;2023-05-10T01:45:43;17.65;;;13.65;;
51724;SDS011;37801;53.224;6.552;2023-05-10T01:48:15;19.48;;;14.48;;
51724;SDS011;37801;53.224;6.552;2023-05-10T01:50:44;19.27;;;13.23;;
51724;SDS011;37801;53.224;6.552;2023-05-10T01:53:11;18.83;;;13.65;;
51724;SDS011;37801;53.224;6.552;2023-05-10T01:55:47;20.15;;;13.85;;
51724;SDS011;37801;53.224;6.552;2023-05-10T02:00:48;15.18;;;11.77;;
51724;SDS011;37801;53.224;6.552;2023-05-10T02:03:15;17.30;;;12.63;;
51724;SDS011;37801;53.224;6.552;2023-05-10T02:05:43;17.30;;;13.00;;
51724;SDS011;37801;53.224;6.552;2023-05-10T02:08:13;17.10;;;12.93;;
51724;SDS011;37801;53.224;6.552;2023-05-10T02:10:41;16.33;;;13.48;;
51724;SDS011;37801;53.224;6.552;2023-05-10T02:13:10;15.93;;;12.38;;
51724;SDS011;37801;53.224;6.552;2023-05-10T02:15:37;16.77;;;13.23;;
51724;SDS011;37801;53.224;6.552;2023-05-10T02:18:05;14.48;;;12.13;;
51724;SDS011;37801;53.224;6.552;2023-05-10T02:20:32;14.82;;;12.13;;
51724;SDS011;37801;53.224;6.552;2023-05-10T02:22:59;13.68;;;11.57;;
51724;SDS011;37801;53.224;6.552;2023-05-10T02:25:28;14.32;;;11.80;;
51724;SDS011;37801;53.224;6.552;2023-05-10T02:27:55;14.57;;;12.02;;
51724;SDS011;37801;53.224;6.552;2023-05-10T02:30:23;14.65;;;12.30;;
51724;SDS011;37801;53.224;6.552;2023-05-10T02:32:50;14.30;;;11.82;;
51724;SDS011;37801;53.224;6.552;2023-05-10T02:35:16;15.98;;;12.50;;
51724;SDS011;37801;53.224;6.552;2023-05-10T02:37:43;16.05;;;12.98;;
51724;SDS011;37801;53.224;6.552;2023-05-10T02:40:10;18.20;;;13.48;;
51724;SDS011;37801;53.224;6.552;2023-05-10T02:42:38;16.70;;;12.90;;
51724;SDS011;37801;53.224;6.552;2023-05-10T02:45:08;16.05;;;12.63;;
51724;SDS011;37801;53.224;6.552;2023-05-10T02:47:37;18.55;;;14.02;;
51724;SDS011;37801;53.224;6.552;2023-05-10T02:50:03;18.45;;;14.00;;
51724;SDS011;37801;53.224;6.552;2023-05-10T02:52:30;21.13;;;15.32;;
51724;SDS011;37801;53.224;6.552;2023-05-10T02:55:04;19.83;;;14.73;;
51724;SDS011;37801;53.224;6.552;2023-05-10T02:57:34;20.63;;;15.85;;
51724;SDS011;37801;53.224;6.552;2023-05-10T03:00:03;21.25;;;15.82;;
51724;SDS011;37801;53.224;6.552;2023-05-10T03:02:29;21.98;;;16.40;;
51724;SDS011;37801;53.224;6.552;2023-05-10T03:04:56;21.20;;;16.35;;
51724;SDS011;37801;53.224;6.552;2023-05-10T03:07:21;23.40;;;16.48;;
51724;SDS011;37801;53.224;6.552;2023-05-10T03:09:48;25.02;;;16.70;;
51724;SDS011;37801;53.224;6.552;2023-05-10T03:15:28;27.90;;;18.15;;
51724;SDS011;37801;53.224;6.552;2023-05-10T03:20:44;28.92;;;18.63;;
51724;SDS011;37801;53.224;6.552;2023-05-10T03:23:34;27.55;;;19.17;;
51724;SDS011;37801;53.224;6.552;2023-05-10T03:26:03;26.63;;;18.50;;
51724;SDS011;37801;53.224;6.552;2023-05-10T03:28:31;26.80;;;19.45;;
51724;SDS011;37801;53.224;6.552;2023-05-10T03:30:59;28.58;;;20.10;;
51724;SDS011;37801;53.224;6.552;2023-05-10T03:33:25;27.55;;;18.67;;
51724;SDS011;37801;53.224;6.552;2023-05-10T03:35:51;28.05;;;18.80;;
51724;SDS011;37801;53.224;6.552;2023-05-10T03:38:16;27.90;;;19.63;;
51724;SDS011;37801;53.224;6.552;2023-05-10T03:40:42;28.95;;;19.85;;
51724;SDS011;37801;53.224;6.552;2023-05-10T03:43:08;28.95;;;20.10;;
51724;SDS011;37801;53.224;6.552;2023-05-10T03:45:33;30.00;;;19.67;;
51724;SDS011;37801;53.224;6.552;2023-05-10T03:47:59;29.63;;;20.05;;
51724;SDS011;37801;53.224;6.552;2023-05-10T03:50:25;28.60;;;19.70;;
51724;SDS011;37801;53.224;6.552;2023-05-10T03:52:51;29.30;;;20.52;;
51724;SDS011;37801;53.224;6.552;2023-05-10T03:55:17;28.95;;;20.02;;
51724;SDS011;37801;53.224;6.552;2023-05-10T03:57:43;31.80;;;21.60;;
51724;SDS011;37801;53.224;6.552;2023-05-10T04:00:09;35.67;;;22.17;;
51724;SDS011;37801;53.224;6.552;2023-05-10T04:02:35;34.15;;;22.15;;
51724;SDS011;37801;53.224;6.552;2023-05-10T04:05:01;34.85;;;22.05;;
51724;SDS011;37801;53.224;6.552;2023-05-10T04:07:27;28.90;;;19.02;;
51724;SDS011;37801;53.224;6.552;2023-05-10T04:09:53;22.80;;;16.80;;
51724;SDS011;37801;53.224;6.552;2023-05-10T04:12:19;20.70;;;14.93;;
51724;SDS011;37801;53.224;6.552;2023-05-10T04:14:44;18.67;;;12.93;;
51724;SDS011;37801;53.224;6.552;2023-05-10T04:17:10;20.60;;;13.38;;
51724;SDS011;37801;53.224;6.552;2023-05-10T04:19:36;16.77;;;12.23;;
51724;SDS011;37801;53.224;6.552;2023-05-10T04:22:02;16.33;;;12.02;;
51724;SDS011;37801;53.224;6.552;2023-05-10T04:24:27;15.10;;;10.93;;
51724;SDS011;37801;53.224;6.552;2023-05-10T04:26:53;14.52;;;10.85;;
51724;SDS011;37801;53.224;6.552;2023-05-10T04:29:19;14.15;;;11.00;;
51724;SDS011;37801;53.224;6.552;2023-05-10T04:31:45;12.73;;;10.15;;
51724;SDS011;37801;53.224;6.552;2023-05-10T04:34:11;12.98;;;10.35;;
51724;SDS011;37801;53.224;6.552;2023-05-10T04:36:37;11.15;;;9.70;;
51724;SDS011;37801;53.224;6.552;2023-05-10T04:39:03;11.30;;;9.73;;
51724;SDS011;37801;53.224;6.552;2023-05-10T04:41:29;11.18;;;9.95;;
51724;SDS011;37801;53.224;6.552;2023-05-10T04:43:55;12.25;;;9.38;;
51724;SDS011;37801;53.224;6.552;2023-05-10T04:46:21;10.57;;;9.23;;
51724;SDS011;37801;53.224;6.552;2023-05-10T04:48:46;12.00;;;10.07;;
51724;SDS011;37801;53.224;6.552;2023-05-10T04:51:12;11.07;;;9.40;;
51724;SDS011;37801;53.224;6.552;2023-05-10T04:53:38;10.77;;;9.68;;
51724;SDS011;37801;53.224;6.552;2023-05-10T04:56:04;12.10;;;10.10;;
51724;SDS011;37801;53.224;6.552;2023-05-10T04:58:30;10.48;;;8.82;;
51724;SDS011;37801;53.224;6.552;2023-05-10T05:00:56;10.15;;;9.05;;
51724;SDS011;37801;53.224;6.552;2023-05-10T05:03:22;10.45;;;8.65;;
51724;SDS011;37801;53.224;6.552;2023-05-10T05:05:47;10.18;;;9.07;;
51724;SDS011;37801;53.224;6.552;2023-05-10T05:08:13;10.57;;;9.18;;
51724;SDS011;37801;53.224;6.552;2023-05-10T05:10:39;10.95;;;9.80;;
51724;SDS011;37801;53.224;6.552;2023-05-10T05:13:05;13.63;;;9.18;;
51724;SDS011;37801;53.224;6.552;2023-05-10T05:15:31;11.70;;;9.20;;
51724;SDS011;37801;53.224;6.552;2023-05-10T05:17:57;9.60;;;8.55;;
51724;SDS011;37801;53.224;6.552;2023-05-10T05:20:23;10.00;;;8.65;;
51724;SDS011;37801;53.224;6.552;2023-05-10T05:22:48;10.70;;;9.10;;
51724;SDS011;37801;53.224;6.552;2023-05-10T05:25:14;11.43;;;8.35;;
51724;SDS011;37801;53.224;6.552;2023-05-10T05:27:40;10.25;;;8.32;;
51724;SDS011;37801;53.224;6.552;2023-05-10T05:30:06;10.60;;;8.90;;
51724;SDS011;37801;53.224;6.552;2023-05-10T05:32:33;11.70;;;9.40;;
51724;SDS011;37801;53.224;6.552;2023-05-10T05:34:59;12.52;;;10.02;;
51724;SDS011;37801;53.224;6.552;2023-05-10T05:37:24;10.73;;;9.20;;
51724;SDS011;37801;53.224;6.552;2023-05-10T05:39:50;11.27;;;9.77;;
51724;SDS011;37801;53.224;6.552;2023-05-10T05:42:16;11.10;;;9.25;;
51724;SDS011;37801;53.224;6.552;2023-05-10T05:44:43;11.60;;;8.77;;
51724;SDS011;37801;53.224;6.552;2023-05-10T05:47:09;11.40;;;8.63;;
51724;SDS011;37801;53.224;6.552;2023-05-10T05:49:36;12.00;;;9.30;;
51724;SDS011;37801;53.224;6.552;2023-05-10T05:52:02;10.68;;;9.00;;
51724;SDS011;37801;53.224;6.552;2023-05-10T05:54:29;11.15;;;8.48;;
51724;SDS011;37801;53.224;6.552;2023-05-10T05:56:59;9.88;;;7.55;;
51724;SDS011;37801;53.224;6.552;2023-05-10T05:59:25;10.73;;;7.93;;
51724;SDS011;37801;53.224;6.552;2023-05-10T06:01:51;8.68;;;6.72;;
51724;SDS011;37801;53.224;6.552;2023-05-10T06:04:18;8.73;;;6.20;;
51724;SDS011;37801;53.224;6.552;2023-05-10T06:06:44;7.03;;;5.63;;
51724;SDS011;37801;53.224;6.552;2023-05-10T06:09:10;6.15;;;5.13;;
51724;SDS011;37801;53.224;6.552;2023-05-10T06:11:37;5.85;;;4.70;;
51724;SDS011;37801;53.224;6.552;2023-05-10T06:14:03;5.25;;;4.55;;
51724;SDS011;37801;53.224;6.552;2023-05-10T06:16:32;23.55;;;15.30;;
51724;SDS011;37801;53.224;6.552;2023-05-10T06:19:01;23.25;;;14.07;;
51724;SDS011;37801;53.224;6.552;2023-05-10T06:21:27;25.98;;;12.35;;
51724;SDS011;37801;53.224;6.552;2023-05-10T06:23:53;50.60;;;21.00;;
51724;SDS011;37801;53.224;6.552;2023-05-10T06:26:19;27.55;;;12.00;;
51724;SDS011;37801;53.224;6.552;2023-05-10T06:28:45;13.38;;;6.10;;
51724;SDS011;37801;53.224;6.552;2023-05-10T06:31:11;6.30;;;4.85;;
51724;SDS011;37801;53.224;6.552;2023-05-10T06:33:37;8.02;;;6.32;;
51724;SDS011;37801;53.224;6.552;2023-05-10T06:36:03;10.27;;;7.20;;
51724;SDS011;37801;53.224;6.552;2023-05-10T06:38:29;9.30;;;7.90;;
51724;SDS011;37801;53.224;6.552;2023-05-10T06:40:54;12.43;;;9.02;;
51724;SDS011;37801;53.224;6.552;2023-05-10T06:43:20;14.35;;;10.93;;
51724;SDS011;37801;53.224;6.552;2023-05-10T06:45:47;15.07;;;11.98;;
51724;SDS011;37801;53.224;6.552;2023-05-10T06:48:13;16.48;;;11.48;;
51724;SDS011;37801;53.224;6.552;2023-05-10T06:50:39;14.63;;;12.05;;
51724;SDS011;37801;53.224;6.552;2023-05-10T06:53:04;15.07;;;11.80;;
51724;SDS011;37801;53.224;6.552;2023-05-10T06:55:30;16.65;;;12.52;;
51724;SDS011;37801;53.224;6.552;2023-05-10T06:57:56;17.77;;;13.57;;
51724;SDS011;37801;53.224;6.552;2023-05-10T07:00:22;18.75;;;13.35;;
51724;SDS011;37801;53.224;6.552;2023-05-10T07:02:48;16.50;;;13.60;;
51724;SDS011;37801;53.224;6.552;2023-05-10T07:05:14;18.98;;;14.05;;
51724;SDS011;37801;53.224;6.552;2023-05-10T07:07:40;18.77;;;13.85;;
51724;SDS011;37801;53.224;6.552;2023-05-10T07:10:06;16.98;;;12.25;;
51724;SDS011;37801;53.224;6.552;2023-05-10T07:12:32;15.45;;;11.35;;
51724;SDS011;37801;53.224;6.552;2023-05-10T07:14:58;13.75;;;10.57;;
51724;SDS011;37801;53.224;6.552;2023-05-10T07:17:24;14.52;;;10.43;;
51724;SDS011;37801;53.224;6.552;2023-05-10T07:19:50;12.25;;;9.77;;
51724;SDS011;37801;53.224;6.552;2023-05-10T07:22:15;12.32;;;8.98;;
51724;SDS011;37801;53.224;6.552;2023-05-10T07:24:44;11.00;;;8.80;;
51724;SDS011;37801;53.224;6.552;2023-05-10T07:27:10;10.60;;;8.60;;
51724;SDS011;37801;53.224;6.552;2023-05-10T07:29:36;10.95;;;9.00;;
51724;SDS011;37801;53.224;6.552;2023-05-10T07:32:02;10.13;;;8.18;;
51724;SDS011;37801;53.224;6.552;2023-05-10T07:34:28;9.77;;;7.80;;
51724;SDS011;37801;53.224;6.552;2023-05-10T07:36:56;8.68;;;7.70;;
51724;SDS011;37801;53.224;6.552;2023-05-10T07:39:23;7.63;;;6.82;;
51724;SDS011;37801;53.224;6.552;2023-05-10T07:41:48;6.43;;;5.65;;
51724;SDS011;37801;53.224;6.552;2023-05-10T07:44:14;6.68;;;5.70;;
51724;SDS011;37801;53.224;6.552;2023-05-10T07:46:43;5.38;;;4.78;;
51724;SDS011;37801;53.224;6.552;2023-05-10T07:49:09;5.95;;;4.07;;
51724;SDS011;37801;53.224;6.552;2023-05-10T07:51:34;4.20;;;3.40;;
51724;SDS011;37801;53.224;6.552;2023-05-10T07:54:00;3.95;;;3.53;;
51724;SDS011;37801;53.224;6.552;2023-05-10T07:56:30;4.38;;;3.70;;
51724;SDS011;37801;53.224;6.552;2023-05-10T07:59:00;5.53;;;4.78;;
51724;SDS011;37801;53.224;6.552;2023-05-10T08:01:30;5.53;;;4.82;;
51724;SDS011;37801;53.224;6.552;2023-05-10T08:03:59;6.25;;;5.65;;
51724;SDS011;37801;53.224;6.552;2023-05-10T08:06:26;6.45;;;5.75;;
51724;SDS011;37801;53.224;6.552;2023-05-10T08:08:54;6.97;;;5.85;;
51724;SDS011;37801;53.224;6.552;2023-05-10T08:11:20;7.70;;;6.40;;
51724;SDS011;37801;53.224;6.552;2023-05-10T08:13:47;8.13;;;7.28;;
51724;SDS011;37801;53.224;6.552;2023-05-10T08:16:13;13.23;;;7.53;;
51724;SDS011;37801;53.224;6.552;2023-05-10T08:18:39;10.95;;;7.32;;
51724;SDS011;37801;53.224;6.552;2023-05-10T08:21:05;9.80;;;7.45;;
51724;SDS011;37801;53.224;6.552;2023-05-10T08:23:31;11.73;;;7.82;;
51724;SDS011;37801;53.224;6.552;2023-05-10T08:25:57;11.18;;;7.50;;
51724;SDS011;37801;53.224;6.552;2023-05-10T08:28:23;11.55;;;7.65;;
51724;SDS011;37801;53.224;6.552;2023-05-10T08:30:49;10.30;;;7.78;;
51724;SDS011;37801;53.224;6.552;2023-05-10T08:33:17;10.75;;;8.18;;
51724;SDS011;37801;53.224;6.552;2023-05-10T08:35:43;11.43;;;8.30;;
51724;SDS011;37801;53.224;6.552;2023-05-10T08:38:08;10.85;;;8.10;;
51724;SDS011;37801;53.224;6.552;2023-05-10T08:40:34;9.52;;;8.20;;
51724;SDS011;37801;53.224;6.552;2023-05-10T08:43:05;10.02;;;8.20;;
51724;SDS011;37801;53.224;6.552;2023-05-10T08:45:37;9.05;;;7.78;;
51724;SDS011;37801;53.224;6.552;2023-05-10T08:48:13;10.32;;;8.30;;
51724;SDS011;37801;53.224;6.552;2023-05-10T08:50:40;11.02;;;7.72;;
51724;SDS011;37801;53.224;6.552;2023-05-10T08:53:10;9.88;;;8.38;;
51724;SDS011;37801;53.224;6.552;2023-05-10T08:55:38;9.32;;;6.80;;
51724;SDS011;37801;53.224;6.552;2023-05-10T08:58:07;8.48;;;6.93;;
51724;SDS011;37801;53.224;6.552;2023-05-10T09:00:34;8.82;;;6.70;;
51724;SDS011;37801;53.224;6.552;2023-05-10T09:03:02;8.63;;;7.18;;
51724;SDS011;37801;53.224;6.552;2023-05-10T09:05:30;12.20;;;7.47;;
51724;SDS011;37801;53.224;6.552;2023-05-10T09:07:56;10.18;;;8.20;;
51724;SDS011;37801;53.224;6.552;2023-05-10T09:10:22;10.02;;;7.80;;
51724;SDS011;37801;53.224;6.552;2023-05-10T09:12:51;8.80;;;7.43;;
51724;SDS011;37801;53.224;6.552;2023-05-10T09:15:18;10.07;;;8.05;;
51724;SDS011;37801;53.224;6.552;2023-05-10T09:17:45;13.57;;;8.90;;
51724;SDS011;37801;53.224;6.552;2023-05-10T09:20:11;13.88;;;9.85;;
51724;SDS011;37801;53.224;6.552;2023-05-10T09:22:37;14.18;;;10.40;;
51724;SDS011;37801;53.224;6.552;2023-05-10T09:25:10;13.95;;;9.80;;
51724;SDS011;37801;53.224;6.552;2023-05-10T09:27:40;11.75;;;8.90;;
51724;SDS011;37801;53.224;6.552;2023-05-10T09:30:10;13.23;;;9.57;;
51724;SDS011;37801;53.224;6.552;2023-05-10T09:32:44;13.02;;;9.23;;
51724;SDS011;37801;53.224;6.552;2023-05-10T09:35:11;12.45;;;9.70;;
51724;SDS011;37801;53.224;6.552;2023-05-10T09:37:40;13.90;;;10.48;;
51724;SDS011;37801;53.224;6.552;2023-05-10T09:40:07;13.80;;;10.85;;
51724;SDS011;37801;53.224;6.552;2023-05-10T09:42:38;15.20;;;10.25;;
51724;SDS011;37801;53.224;6.552;2023-05-10T09:45:04;12.40;;;9.77;;
51724;SDS011;37801;53.224;6.552;2023-05-10T09:47:32;12.95;;;10.32;;
51724;SDS011;37801;53.224;6.552;2023-05-10T09:49:59;13.27;;;10.55;;
51724;SDS011;37801;53.224;6.552;2023-05-10T09:52:29;12.63;;;9.70;;
51724;SDS011;37801;53.224;6.552;2023-05-10T09:54:56;11.73;;;9.05;;
51724;SDS011;37801;53.224;6.552;2023-05-10T09:57:22;12.90;;;8.63;;
51724;SDS011;37801;53.224;6.552;2023-05-10T09:59:49;9.95;;;7.32;;
51724;SDS011;37801;53.224;6.552;2023-05-10T10:02:16;9.90;;;7.80;;
51724;SDS011;37801;53.224;6.552;2023-05-10T10:04:42;11.95;;;7.32;;
51724;SDS011;37801;53.224;6.552;2023-05-10T10:07:08;10.05;;;7.82;;
51724;SDS011;37801;53.224;6.552;2023-05-10T10:09:34;13.02;;;7.80;;
51724;SDS011;37801;53.224;6.552;2023-05-10T10:12:00;9.45;;;7.28;;
51724;SDS011;37801;53.224;6.552;2023-05-10T10:14:27;11.32;;;7.97;;
51724;SDS011;37801;53.224;6.552;2023-05-10T10:16:55;11.10;;;7.63;;
51724;SDS011;37801;53.224;6.552;2023-05-10T10:19:21;10.43;;;6.85;;
51724;SDS011;37801;53.224;6.552;2023-05-10T10:21:48;8.52;;;5.28;;
51724;SDS011;37801;53.224;6.552;2023-05-10T10:24:15;8.65;;;6.03;;
51724;SDS011;37801;53.224;6.552;2023-05-10T10:26:41;9.68;;;6.30;;
51724;SDS011;37801;53.224;6.552;2023-05-10T10:31:55;9.45;;;6.28;;
51724;SDS011;37801;53.224;6.552;2023-05-10T10:36:58;8.48;;;6.03;;
51724;SDS011;37801;53.224;6.552;2023-05-10T10:39:29;7.60;;;5.50;;
51724;SDS011;37801;53.224;6.552;2023-05-10T10:41:56;7.35;;;5.47;;
51724;SDS011;37801;53.224;6.552;2023-05-10T10:44:24;8.48;;;6.25;;
51724;SDS011;37801;53.224;6.552;2023-05-10T10:47:07;10.10;;;7.55;;
51724;SDS011;37801;53.224;6.552;2023-05-10T10:52:32;10.95;;;8.75;;
51724;SDS011;37801;53.224;6.552;2023-05-10T11:02:53;16.52;;;12.35;;
51724;SDS011;37801;53.224;6.552;2023-05-10T11:07:59;17.98;;;12.93;;
51724;SDS011;37801;53.224;6.552;2023-05-10T11:10:26;16.88;;;11.85;;
51724;SDS011;37801;53.224;6.552;2023-05-10T11:12:53;16.52;;;11.55;;
51724;SDS011;37801;53.224;6.552;2023-05-10T11:15:30;18.35;;;13.85;;
51724;SDS011;37801;53.224;6.552;2023-05-10T11:18:17;22.60;;;15.52;;
51724;SDS011;37801;53.224;6.552;2023-05-10T11:20:52;22.15;;;15.88;;
51724;SDS011;37801;53.224;6.552;2023-05-10T11:23:23;24.35;;;16.60;;
51724;SDS011;37801;53.224;6.552;2023-05-10T11:25:54;22.25;;;15.10;;
51724;SDS011;37801;53.224;6.552;2023-05-10T11:28:20;23.08;;;14.65;;
51724;SDS011;37801;53.224;6.552;2023-05-10T11:30:46;21.63;;;14.20;;
51724;SDS011;37801;53.224;6.552;2023-05-10T11:33:16;21.83;;;15.18;;
51724;SDS011;37801;53.224;6.552;2023-05-10T11:35:43;22.25;;;14.73;;
51724;SDS011;37801;53.224;6.552;2023-05-10T11:38:09;25.00;;;15.73;;
51724;SDS011;37801;53.224;6.552;2023-05-10T11:40:37;25.02;;;15.10;;
51724;SDS011;37801;53.224;6.552;2023-05-10T11:43:03;23.95;;;15.68;;
51724;SDS011;37801;53.224;6.552;2023-05-10T11:45:33;27.67;;;16.35;;
51724;SDS011;37801;53.224;6.552;2023-05-10T11:48:00;26.67;;;16.38;;
51724;SDS011;37801;53.224;6.552;2023-05-10T11:50:27;23.70;;;16.33;;
51724;SDS011;37801;53.224;6.552;2023-05-10T11:52:53;28.40;;;16.10;;
51724;SDS011;37801;53.224;6.552;2023-05-10T11:55:20;26.55;;;16.45;;
51724;SDS011;37801;53.224;6.552;2023-05-10T11:57:46;26.48;;;16.08;;
51724;SDS011;37801;53.224;6.552;2023-05-10T12:00:13;25.42;;;15.00;;
51724;SDS011;37801;53.224;6.552;2023-05-10T12:02:39;24.67;;;15.95;;
51724;SDS011;37801;53.224;6.552;2023-05-10T12:05:05;24.08;;;15.25;;
51724;SDS011;37801;53.224;6.552;2023-05-10T12:07:32;25.20;;;16.27;;
51724;SDS011;37801;53.224;6.552;2023-05-10T12:10:11;23.00;;;15.02;;
51724;SDS011;37801;53.224;6.552;2023-05-10T12:12:45;25.55;;;15.27;;
51724;SDS011;37801;53.224;6.552;2023-05-10T12:15:19;25.08;;;15.68;;
51724;SDS011;37801;53.224;6.552;2023-05-10T12:17:49;23.10;;;14.85;;
51724;SDS011;37801;53.224;6.552;2023-05-10T12:20:19;24.08;;;15.90;;
51724;SDS011;37801;53.224;6.552;2023-05-10T12:22:50;24.02;;;16.50;;
51724;SDS011;37801;53.224;6.552;2023-05-10T12:25:19;25.90;;;15.88;;
51724;SDS011;37801;53.224;6.552;2023-05-10T12:27:57;25.63;;;15.88;;
51724;SDS011;37801;53.224;6.552;2023-05-10T12:30:26;25.88;;;15.68;;
51724;SDS011;37801;53.224;6.552;2023-05-10T12:32:53;24.75;;;16.10;;
51724;SDS011;37801;53.224;6.552;2023-05-10T12:35:24;28.42;;;16.70;;
51724;SDS011;37801;53.224;6.552;2023-05-10T12:37:53;30.17;;;17.23;;
51724;SDS011;37801;53.224;6.552;2023-05-10T12:40:18;28.48;;;17.23;;
51724;SDS011;37801;53.224;6.552;2023-05-10T12:42:44;32.67;;;18.48;;
51724;SDS011;37801;53.224;6.552;2023-05-10T12:45:10;30.25;;;17.05;;
51724;SDS011;37801;53.224;6.552;2023-05-10T12:47:37;28.95;;;17.00;;
51724;SDS011;37801;53.224;6.552;2023-05-10T12:50:03;27.27;;;17.10;;
51724;SDS011;37801;53.224;6.552;2023-05-10T12:52:29;28.58;;;17.30;;
51724;SDS011;37801;53.224;6.552;2023-05-10T12:54:57;27.17;;;16.40;;
51724;SDS011;37801;53.224;6.552;2023-05-10T12:57:23;26.83;;;17.20;;
51724;SDS011;37801;53.224;6.552;2023-05-10T12:59:49;24.17;;;16.35;;
51724;SDS011;37801;53.224;6.552;2023-05-10T13:02:15;26.10;;;16.58;;
51724;SDS011;37801;53.224;6.552;2023-05-10T13:04:43;24.70;;;15.75;;
51724;SDS011;37801;53.224;6.552;2023-05-10T13:07:09;26.08;;;16.40;;
51724;SDS011;37801;53.224;6.552;2023-05-10T13:09:35;23.70;;;14.27;;
51724;SDS011;37801;53.224;6.552;2023-05-10T13:12:01;24.73;;;15.95;;
51724;SDS011;37801;53.224;6.552;2023-05-10T13:14:28;27.58;;;16.33;;
51724;SDS011;37801;53.224;6.552;2023-05-10T13:16:55;25.88;;;15.75;;
51724;SDS011;37801;53.224;6.552;2023-05-10T13:19:20;25.55;;;15.82;;
51724;SDS011;37801;53.224;6.552;2023-05-10T13:21:46;27.55;;;15.88;;
51724;SDS011;37801;53.224;6.552;2023-05-10T13:24:12;25.52;;;15.13;;
51724;SDS011;37801;53.224;6.552;2023-05-10T13:26:39;24.40;;;15.40;;
51724;SDS011;37801;53.224;6.552;2023-05-10T13:29:06;24.38;;;13.98;;
51724;SDS011;37801;53.224;6.552;2023-05-10T13:31:33;23.95;;;14.40;;
51724;SDS011;37801;53.224;6.552;2023-05-10T13:33:59;24.92;;;14.95;;
51724;SDS011;37801;53.224;6.552;2023-05-10T13:36:25;23.67;;;14.13;;
51724;SDS011;37801;53.224;6.552;2023-05-10T13:38:51;24.15;;;15.27;;
51724;SDS011;37801;53.224;6.552;2023-05-10T13:41:17;22.90;;;14.23;;
51724;SDS011;37801;53.224;6.552;2023-05-10T13:43:43;21.95;;;14.85;;
51724;SDS011;37801;53.224;6.552;2023-05-10T13:46:09;22.92;;;14.35;;
51724;SDS011;37801;53.224;6.552;2023-05-10T13:48:35;20.65;;;14.07;;
51724;SDS011;37801;53.224;6.552;2023-05-10T13:51:02;20.77;;;13.32;;
51724;SDS011;37801;53.224;6.552;2023-05-10T13:53:28;20.83;;;14.05;;
51724;SDS011;37801;53.224;6.552;2023-05-10T13:55:53;22.40;;;13.93;;
51724;SDS011;37801;53.224;6.552;2023-05-10T13:58:19;21.65;;;13.68;;
51724;SDS011;37801;53.224;6.552;2023-05-10T14:00:45;20.15;;;13.77;;
51724;SDS011;37801;53.224;6.552;2023-05-10T14:03:11;23.95;;;14.93;;
51724;SDS011;37801;53.224;6.552;2023-05-10T14:05:37;24.20;;;15.13;;
51724;SDS011;37801;53.224;6.552;2023-05-10T14:08:02;24.83;;;14.98;;
51724;SDS011;37801;53.224;6.552;2023-05-10T14:10:29;23.42;;;13.95;;
51724;SDS011;37801;53.224;6.552;2023-05-10T14:12:55;25.15;;;14.48;;
51724;SDS011;37801;53.224;6.552;2023-05-10T14:15:21;24.77;;;15.30;;
51724;SDS011;37801;53.224;6.552;2023-05-10T14:17:46;23.77;;;14.85;;
51724;SDS011;37801;53.224;6.552;2023-05-10T14:20:12;25.20;;;15.23;;
51724;SDS011;37801;53.224;6.552;2023-05-10T14:22:38;24.50;;;14.63;;
51724;SDS011;37801;53.224;6.552;2023-05-10T14:25:05;25.25;;;15.25;;
51724;SDS011;37801;53.224;6.552;2023-05-10T14:27:31;26.00;;;16.30;;
51724;SDS011;37801;53.224;6.552;2023-05-10T14:29:57;26.38;;;15.88;;
51724;SDS011;37801;53.224;6.552;2023-05-10T14:32:23;27.67;;;16.08;;
51724;SDS011;37801;53.224;6.552;2023-05-10T14:34:49;25.98;;;16.27;;
51724;SDS011;37801;53.224;6.552;2023-05-10T14:37:15;28.92;;;17.35;;
51724;SDS011;37801;53.224;6.552;2023-05-10T14:39:41;28.58;;;16.35;;
51724;SDS011;37801;53.224;6.552;2023-05-10T14:42:08;27.88;;;16.08;;
51724;SDS011;37801;53.224;6.552;2023-05-10T14:44:34;27.50;;;16.73;;
51724;SDS011;37801;53.224;6.552;2023-05-10T14:47:00;29.92;;;17.55;;
51724;SDS011;37801;53.224;6.552;2023-05-10T14:49:25;29.27;;;17.35;;
51724;SDS011;37801;53.224;6.552;2023-05-10T14:51:52;28.42;;;17.80;;
51724;SDS011;37801;53.224;6.552;2023-05-10T14:54:18;26.83;;;16.70;;
51724;SDS011;37801;53.224;6.552;2023-05-10T14:56:43;30.70;;;17.85;;
51724;SDS011;37801;53.224;6.552;2023-05-10T14:59:10;30.33;;;18.52;;
51724;SDS011;37801;53.224;6.552;2023-05-10T15:01:35;29.30;;;17.38;;
51724;SDS011;37801;53.224;6.552;2023-05-10T15:04:05;27.17;;;17.20;;
51724;SDS011;37801;53.224;6.552;2023-05-10T15:06:32;28.65;;;17.38;;